Time;durP1;ratioP1;P1;durP2;ratioP2;P2;SDS_P1;SDS_P2;PMS_P1;PMS_P2;Temp;Humidity;BMP_temperature;BMP_pressure;BME280_temperature;BME280_humidity;BME280_pressure;Samples;Min_cycle;Max_cycle;Signal;HPM_P1;HPM_P2
2021/12/16 00:02:02;;;;;;;;;11.25;11.25;;;;;21.96;36.55;102990.19;5056350;28;45185;-57
2021/12/16 00:09:52;;;;;;;;;11.75;10.00;;;;;22.01;36.77;102995.34;5056610;28;45603;-52
2021/12/16 00:31:24;;;;;;;;;10.25;9.00;;;;;22.13;36.29;103004.72;5056348;28;45392;-55
2021/12/16 00:34:01;;;;;;;;;10.00;8.50;;;;;22.14;36.67;103009.09;5056226;28;46340;-53
2021/12/16 00:36:37;;;;;;;;;11.75;7.50;;;;;22.14;36.50;103006.47;5056221;28;45281;-50
2021/12/16 00:39:10;;;;;;;;;9.25;9.25;;;;;22.15;36.70;103003.75;5038174;28;45211;-53
2021/12/16 00:41:37;;;;;;;;;10.00;9.50;;;;;22.16;36.53;103005.50;5056377;28;45530;-54
2021/12/16 00:44:21;;;;;;;;;10.00;8.75;;;;;22.18;36.46;103002.81;5056051;28;46890;-56
2021/12/16 00:47:02;;;;;;;;;10.00;8.25;;;;;22.17;36.46;103001.06;5056017;28;45383;-54
2021/12/16 00:54:40;;;;;;;;;7.25;7.25;;;;;22.17;36.48;102993.13;5055678;28;45778;-56
2021/12/16 00:57:11;;;;;;;;;8.00;8.00;;;;;22.17;36.43;102993.13;5055859;28;45388;-55
2021/12/16 00:59:40;;;;;;;;;10.75;10.75;;;;;22.15;36.53;102993.19;5055888;28;45453;-56
2021/12/16 01:33:33;;;;;;;;;8.25;7.00;;;;;22.10;36.69;102979.28;5040590;28;45332;-57
2021/12/16 01:40:28;;;;;;;;;8.00;7.50;;;;;21.98;36.57;102992.81;5058715;28;45851;-55
2021/12/16 01:51:03;;;;;;;;;9.50;8.50;;;;;21.90;36.42;102999.16;5058537;28;45709;-57
2021/12/16 01:56:22;;;;;;;;;7.50;7.50;;;;;21.87;36.76;102999.25;5058833;28;45378;-58
2021/12/16 01:58:50;;;;;;;;;11.00;11.00;;;;;21.86;36.56;103000.16;5058277;28;46991;-57
2021/12/16 02:01:20;;;;;;;;;10.00;8.25;;;;;21.85;36.84;103008.97;5058567;28;45187;-55
2021/12/16 02:04:00;;;;;;;;;9.50;8.75;;;;;21.84;36.55;103003.72;5058536;28;45395;-53
2021/12/16 02:09:06;;;;;;;;;10.00;9.00;;;;;21.82;36.76;103006.41;5058013;28;45221;-56
2021/12/16 02:11:53;;;;;;;;;11.00;9.25;;;;;21.81;36.78;103012.59;5058246;28;45395;-55
2021/12/16 02:33:32;;;;;;;;;9.75;8.25;;;;;21.69;36.97;103007.63;5057932;28;45950;-56
2021/12/16 02:36:13;;;;;;;;;8.75;8.75;;;;;21.68;37.08;103008.53;5058330;28;45391;-52
2021/12/16 02:38:42;;;;;;;;;9.00;8.00;;;;;21.65;36.73;103003.34;5058079;28;45524;-50
2021/12/16 02:41:08;;;;;;;;;9.75;8.50;;;;;21.66;36.86;103005.09;5040237;28;46650;-51
2021/12/16 02:48:39;;;;;;;;;11.25;9.75;;;;;21.62;36.85;103012.19;5057869;28;45229;-52
2021/12/16 02:51:22;;;;;;;;;7.50;7.50;;;;;21.59;36.95;102999.97;5057621;28;46084;-54
2021/12/16 02:53:55;;;;;;;;;8.50;7.00;;;;;21.58;37.05;103005.25;5057785;28;45831;-54
2021/12/16 02:56:20;;;;;;;;;8.00;8.00;;;;;21.54;37.22;103007.09;5057719;28;45253;-56
2021/12/16 02:58:50;;;;;;;;;9.25;8.00;;;;;21.57;36.94;103012.28;5057953;28;45323;-56
2021/12/16 03:01:28;;;;;;;;;10.75;9.00;;;;;21.55;37.36;103005.31;5057455;28;46816;-57
2021/12/16 03:03:55;;;;;;;;;8.00;8.00;;;;;21.54;37.11;103006.22;5057352;28;45866;-52
2021/12/16 03:06:20;;;;;;;;;9.75;7.75;;;;;21.52;36.76;103003.63;5039536;28;45237;-55
2021/12/16 03:08:48;;;;;;;;;9.50;8.00;;;;;21.51;36.78;103004.53;5057517;28;45266;-55
2021/12/16 03:14:06;;;;;;;;;9.00;8.00;;;;;21.50;36.57;103002.81;5057215;28;45292;-57
2021/12/16 03:20:11;;;;;;;;;8.00;8.00;;;;;21.46;37.24;103016.97;5026186;28;45395;-55
2021/12/16 03:22:06;;;;;;;;;9.50;9.25;;;;;21.46;37.01;103014.31;5049494;28;46352;-55
2021/12/16 03:35:00;;;;;;;;;10.00;9.50;;;;;21.54;37.31;103006.22;5056256;28;45508;-53
2021/12/16 03:37:27;;;;;;;;;8.50;6.75;;;;;21.57;37.41;103006.16;5056958;28;45339;-56
2021/12/16 03:40:08;;;;;;;;;7.50;7.50;;;;;21.61;37.32;103013.97;5057145;28;45435;-52
2021/12/16 03:42:40;;;;;;;;;10.00;7.50;;;;;21.65;37.02;103013.91;5056954;28;45236;-50
2021/12/16 03:48:24;;;;;;;;;10.25;8.75;;;;;21.72;37.26;103015.47;5056855;28;45261;-56
2021/12/16 03:50:50;;;;;;;;;8.00;7.00;;;;;21.75;36.87;103015.41;5056859;28;45458;-55
2021/12/16 03:53:17;;;;;;;;;10.50;8.00;;;;;21.78;37.32;103010.03;5056733;28;46407;-54
2021/12/16 03:55:45;;;;;;;;;7.00;7.00;;;;;21.81;36.97;103015.22;5056625;28;45403;-56
2021/12/16 03:58:11;;;;;;;;;8.25;8.25;;;;;21.84;37.07;103009.88;5056699;28;45408;-56
2021/12/16 04:00:43;;;;;;;;;10.25;9.00;;;;;21.87;37.01;103017.72;5056871;28;45355;-56
2021/12/16 04:03:09;;;;;;;;;9.75;9.50;;;;;21.89;36.93;103018.53;5056482;28;46345;-56
2021/12/16 04:05:35;;;;;;;;;8.75;8.75;;;;;21.88;36.79;103008.03;5056828;28;45260;-56
2021/12/16 04:08:00;;;;;;;;;11.75;10.00;;;;;21.90;37.10;103007.06;5056899;28;45829;-55
2021/12/16 04:10:35;;;;;;;;;11.25;8.50;;;;;21.89;37.13;103020.31;5056677;28;45404;-56
2021/12/16 04:13:04;;;;;;;;;11.00;11.00;;;;;21.90;36.93;103022.91;5056531;28;47225;-55
2021/12/16 04:15:30;;;;;;;;;9.50;8.25;;;;;21.90;37.43;103014.97;5056531;28;45438;-56
2021/12/16 04:17:56;;;;;;;;;11.25;10.25;;;;;21.91;36.99;103019.38;5056317;28;45489;-52
2021/12/16 04:20:22;;;;;;;;;9.75;8.75;;;;;21.90;37.14;103020.25;5038466;28;45381;-53
2021/12/16 04:22:48;;;;;;;;;10.00;8.25;;;;;21.93;37.16;103020.19;5056128;28;47338;-54
2021/12/16 04:25:20;;;;;;;;;10.75;10.75;;;;;21.93;36.88;103020.19;5056143;28;45344;-53
2021/12/16 04:27:47;;;;;;;;;12.75;10.00;;;;;21.95;37.29;103021.94;5038371;28;45491;-53
2021/12/16 04:30:16;;;;;;;;;9.00;9.00;;;;;21.95;36.92;103022.78;5056408;28;45336;-54
2021/12/16 04:32:41;;;;;;;;;8.75;8.75;;;;;21.96;36.85;103021.03;5056112;28;45848;-54
2021/12/16 04:35:08;;;;;;;;;8.75;7.00;;;;;21.95;37.21;103032.50;5056105;28;45412;-51
2021/12/16 04:37:33;;;;;;;;;10.50;9.25;;;;;21.95;37.37;103037.78;5038422;28;45297;-54
2021/12/16 04:40:00;;;;;;;;;11.50;10.00;;;;;21.95;36.89;103035.13;5056400;28;45279;-56
2021/12/16 04:42:26;;;;;;;;;9.75;9.50;;;;;21.94;36.86;103036.88;5055999;28;45594;-56
2021/12/16 04:44:52;;;;;;;;;9.50;8.25;;;;;21.89;36.87;103029.09;5056313;28;45268;-57
2021/12/16 04:47:17;;;;;;;;;5.00;4.75;;;;;21.93;36.85;103041.31;5059853;28;45333;-56
2021/12/16 04:49:43;;;;;;;;;7.25;7.25;;;;;21.94;36.76;103036.88;5041637;28;45501;-56
2021/12/16 04:52:14;;;;;;;;;13.00;10.00;;;;;21.93;37.04;103043.09;5059444;28;45405;-55
2021/12/16 04:54:40;;;;;;;;;9.00;9.00;;;;;21.93;36.97;103045.75;5059531;28;45886;-54
2021/12/16 04:57:06;;;;;;;;;9.50;8.00;;;;;21.91;37.09;103042.28;5059925;28;45324;-53
2021/12/16 04:59:33;;;;;;;;;9.75;9.50;;;;;21.89;37.08;103034.38;5059666;28;45424;-51
2021/12/16 05:02:22;;;;;;;;;12.50;11.50;;;;;21.88;36.66;103039.69;5059352;28;45495;-53
2021/12/16 05:04:48;;;;;;;;;10.75;10.25;;;;;21.87;36.72;103041.50;5059345;28;45870;-52
2021/12/16 05:07:15;;;;;;;;;9.25;7.50;;;;;21.86;36.83;103042.41;5059201;28;45390;-54
2021/12/16 05:12:15;;;;;;;;;12.00;10.75;;;;;21.85;37.16;103042.41;5059201;28;45361;-50
2021/12/16 05:14:42;;;;;;;;;13.50;11.50;;;;;21.83;36.84;103039.81;5059131;28;45914;-56
2021/12/16 05:17:20;;;;;;;;;12.00;10.25;;;;;21.83;37.09;103039.81;5059596;28;45461;-56
2021/12/16 05:19:50;;;;;;;;;11.00;11.00;;;;;21.81;36.84;103041.63;5059487;28;45368;-55
2021/12/16 05:24:59;;;;;;;;;8.00;7.50;;;;;21.80;37.21;103042.53;5059049;28;46018;-55
2021/12/16 05:27:24;;;;;;;;;12.00;11.00;;;;;21.78;37.04;103033.78;5059042;28;45392;-53
2021/12/16 05:29:50;;;;;;;;;5.75;5.75;;;;;21.77;36.87;103040.00;5059170;28;45376;-55
2021/12/16 05:32:15;;;;;;;;;8.25;8.25;;;;;21.76;37.14;103048.81;5058672;28;48496;-55
2021/12/16 05:34:40;;;;;;;;;10.75;10.25;;;;;21.74;36.98;103045.34;5058797;28;45321;-52
2021/12/16 05:37:08;;;;;;;;;11.50;9.00;;;;;21.74;36.68;103051.47;5059076;28;45614;-54
2021/12/16 05:39:33;;;;;;;;;11.25;8.50;;;;;21.73;36.72;103054.16;5058979;28;45502;-56
2021/12/16 05:41:59;;;;;;;;;9.25;9.25;;;;;21.72;36.95;103055.06;5058897;28;45387;-56
2021/12/16 05:44:24;;;;;;;;;10.00;9.00;;;;;21.72;36.73;103057.72;5058606;28;45267;-53
2021/12/16 05:46:50;;;;;;;;;10.25;9.50;;;;;21.69;37.32;103063.06;5058757;28;45267;-55
2021/12/16 05:49:17;;;;;;;;;11.50;9.75;;;;;21.68;36.77;103064.84;5058861;28;45538;-47
2021/12/16 05:51:45;;;;;;;;;9.25;8.75;;;;;21.68;37.01;103066.59;5058422;28;45370;-55
2021/12/16 05:54:12;;;;;;;;;4.75;4.00;;;;;21.66;36.95;103066.66;5058538;28;45867;-49
2021/12/16 05:56:39;;;;;;;;;7.50;7.25;;;;;21.64;37.15;103063.16;5058301;28;45327;-51
2021/12/16 05:59:07;;;;;;;;;7.50;7.00;;;;;21.63;37.01;103074.63;5040709;28;45336;-53
2021/12/16 06:01:35;;;;;;;;;11.00;10.00;;;;;21.61;37.17;103073.78;5058428;28;46219;-53
2021/12/16 06:04:01;;;;;;;;;10.00;10.00;;;;;21.59;37.13;103078.28;5058403;28;45332;-51
2021/12/16 06:06:28;;;;;;;;;13.00;12.00;;;;;21.57;37.34;103075.63;5058459;28;45471;-55
2021/12/16 06:08:55;;;;;;;;;14.75;12.75;;;;;21.55;37.20;103073.94;5058124;28;45510;-55
2021/12/16 06:11:26;;;;;;;;;11.75;10.00;;;;;21.53;37.09;103078.38;5057976;28;45480;-55
2021/12/16 06:14:20;;;;;;;;;12.00;11.50;;;;;21.52;37.17;103088.06;5058059;28;45498;-51
2021/12/16 06:27:35;;;;;;;;;14.00;13.50;;;;;21.48;37.63;103083.75;5058103;28;45315;-52
2021/12/16 06:30:13;;;;;;;;;13.75;11.25;;;;;21.47;37.49;103067.06;5058232;28;45636;-55
2021/12/16 06:32:39;;;;;;;;;15.25;12.00;;;;;21.49;37.31;103077.56;5058310;28;46345;-52
2021/12/16 06:35:06;;;;;;;;;13.25;11.00;;;;;21.51;37.37;103081.06;5039769;28;45333;-53
2021/12/16 06:37:32;;;;;;;;;13.75;12.75;;;;;21.51;37.59;103078.41;5058101;28;45441;-53
2021/12/16 06:39:58;;;;;;;;;11.50;9.00;;;;;21.51;37.52;103086.31;5058254;28;45242;-51
2021/12/16 06:42:25;;;;;;;;;15.00;12.00;;;;;21.49;37.71;103072.31;5057778;28;45399;-53
2021/12/16 06:44:55;;;;;;;;;11.75;9.50;;;;;21.48;37.38;103081.13;5057788;28;45832;-51
2021/12/16 06:47:28;;;;;;;;;12.00;12.00;;;;;21.46;37.60;103080.28;5057846;28;45182;-50
2021/12/16 06:49:55;;;;;;;;;13.00;11.75;;;;;21.47;37.67;103087.28;5057859;28;45268;-56
2021/12/16 06:52:26;;;;;;;;;12.00;10.00;;;;;21.44;37.34;103085.59;5039620;28;47475;-51
2021/12/16 06:55:18;;;;;;;;;13.25;9.75;;;;;21.44;37.54;103085.59;5039342;28;45411;-47
2021/12/16 06:57:50;;;;;;;;;12.50;10.75;;;;;21.42;37.63;103091.81;5057655;28;45295;-49
2021/12/16 07:00:29;;;;;;;;;10.00;10.00;;;;;21.41;37.56;103095.38;5057855;28;45396;-50
2021/12/16 07:03:00;;;;;;;;;13.00;12.50;;;;;21.40;37.92;103097.13;5056063;28;45571;-53
2021/12/16 07:05:30;;;;;;;;;11.50;11.00;;;;;21.40;37.88;103093.63;5056229;28;45359;-52
2021/12/16 07:07:57;;;;;;;;;10.25;10.00;;;;;21.38;37.42;103098.06;5057071;28;45364;-48
2021/12/16 07:10:24;;;;;;;;;9.75;9.75;;;;;21.37;37.69;103093.69;5056713;28;45525;-52
2021/12/16 07:12:50;;;;;;;;;11.25;10.50;;;;;21.35;37.91;103101.66;5057072;28;46392;-49
2021/12/16 07:15:21;;;;;;;;;12.75;10.00;;;;;21.36;37.48;103100.75;5057107;28;45849;-49
2021/12/16 07:17:49;;;;;;;;;12.50;10.00;;;;;21.35;37.84;103106.94;5039271;28;45442;-51
2021/12/16 07:20:17;;;;;;;;;1.25;1.25;;;;;21.33;37.84;103108.72;5057654;28;45347;-52
2021/12/16 07:22:43;;;;;;;;;11.50;9.75;;;;;21.32;37.64;103101.72;5057350;28;46496;-50
2021/12/16 07:25:09;;;;;;;;;13.50;10.75;;;;;21.31;37.41;103106.13;5039073;28;45264;-54
2021/12/16 07:27:36;;;;;;;;;11.00;10.50;;;;;21.31;37.52;103102.63;5057134;28;45398;-54
2021/12/16 07:30:07;;;;;;;;;10.00;8.00;;;;;21.28;38.07;103100.91;5057059;28;45367;-55
2021/12/16 07:32:35;;;;;;;;;10.50;9.50;;;;;21.28;37.76;103106.19;5056799;28;45609;-53
2021/12/16 07:35:01;;;;;;;;;9.75;9.75;;;;;21.27;37.70;103115.00;5056822;28;45891;-54
2021/12/16 07:37:26;;;;;;;;;9.25;9.25;;;;;21.27;38.07;103108.88;5038996;28;45311;-56
2021/12/16 07:39:52;;;;;;;;;11.00;10.50;;;;;21.26;37.44;103107.16;5056955;28;45437;-55
2021/12/16 07:42:26;;;;;;;;;11.25;11.00;;;;;21.23;37.69;103102.78;5056730;28;45430;-53
2021/12/16 07:44:52;;;;;;;;;8.00;8.00;;;;;21.24;37.55;103107.16;5056652;28;45367;-54
2021/12/16 07:47:17;;;;;;;;;12.25;10.75;;;;;21.24;37.69;103108.94;5056926;28;45343;-55
2021/12/16 07:49:44;;;;;;;;;10.00;8.50;;;;;21.23;37.84;103108.06;5057165;28;45604;-55
2021/12/16 07:52:12;;;;;;;;;8.75;6.50;;;;;21.21;37.90;103104.59;5056579;28;46285;-53
2021/12/16 07:54:38;;;;;;;;;11.00;10.00;;;;;21.20;37.73;103105.50;5056560;28;45320;-55
2021/12/16 07:57:04;;;;;;;;;10.00;10.00;;;;;21.21;38.01;103115.16;5056756;28;45463;-52
2021/12/16 07:59:31;;;;;;;;;9.50;9.00;;;;;21.19;37.92;103109.03;5056743;28;45465;-52
2021/12/16 08:01:57;;;;;;;;;10.25;8.25;;;;;21.18;37.72;103115.22;5056362;28;45391;-49
2021/12/16 08:04:28;;;;;;;;;8.00;8.00;;;;;21.19;37.64;103116.06;5056604;28;45332;-52
2021/12/16 08:07:04;;;;;;;;;10.00;9.00;;;;;21.15;37.87;103118.78;5056282;28;45178;-55
2021/12/16 08:09:30;;;;;;;;;9.50;9.50;;;;;21.17;37.61;103124.03;5056237;28;45617;-54
2021/12/16 08:11:56;;;;;;;;;12.00;9.25;;;;;21.16;37.93;103131.09;5056314;28;45470;-52
2021/12/16 08:14:21;;;;;;;;;7.75;7.75;;;;;21.17;37.75;103134.56;5056431;28;45367;-52
2021/12/16 08:16:47;;;;;;;;;9.50;9.50;;;;;21.12;37.94;103128.53;5056725;28;45323;-49
2021/12/16 08:19:13;;;;;;;;;9.75;8.00;;;;;21.16;38.04;103132.84;5056900;28;45327;-56
2021/12/16 08:21:38;;;;;;;;;7.25;7.00;;;;;21.15;37.75;103144.28;5055965;28;45907;-55
2021/12/16 08:24:13;;;;;;;;;9.00;8.00;;;;;21.14;37.82;103137.28;5056234;28;45396;-55
2021/12/16 08:26:40;;;;;;;;;9.75;9.75;;;;;21.14;37.83;103137.28;5038010;28;45497;-56
2021/12/16 08:29:05;;;;;;;;;7.25;6.00;;;;;21.13;38.15;103138.16;5056482;28;45332;-54
2021/12/16 08:31:31;;;;;;;;;9.00;8.00;;;;;21.12;37.62;103137.31;5056066;28;46590;-56
2021/12/16 08:33:57;;;;;;;;;11.00;9.00;;;;;21.13;37.76;103143.44;5056019;28;45248;-55
2021/12/16 08:36:23;;;;;;;;;11.00;10.00;;;;;21.11;37.56;103140.00;5056198;28;45272;-55
2021/12/16 08:38:50;;;;;;;;;10.50;9.00;;;;;21.09;37.77;103139.16;5056386;28;45518;-55
2021/12/16 08:41:27;;;;;;;;;8.75;8.75;;;;;21.10;37.87;103144.38;5056239;28;46528;-55
2021/12/16 08:43:53;;;;;;;;;10.00;8.00;;;;;21.09;37.84;103147.06;5055961;28;45438;-55
2021/12/16 08:46:21;;;;;;;;;9.50;9.00;;;;;21.08;37.59;103142.69;5038209;28;45336;-54
2021/12/16 08:48:49;;;;;;;;;10.75;9.25;;;;;21.09;37.52;103149.69;5056431;28;45236;-57
2021/12/16 08:51:18;;;;;;;;;6.25;6.25;;;;;21.08;38.12;103155.88;5056148;28;45537;-56
2021/12/16 08:53:44;;;;;;;;;12.00;9.00;;;;;21.08;37.88;103155.88;5056052;28;45391;-55
2021/12/16 08:56:10;;;;;;;;;7.25;7.25;;;;;21.06;37.62;103158.53;5037948;28;45417;-55
2021/12/16 08:58:37;;;;;;;;;10.00;8.50;;;;;21.06;37.86;103157.66;5056059;28;45205;-55
2021/12/16 09:01:10;;;;;;;;;9.75;9.75;;;;;21.06;37.79;103157.66;5055606;28;46413;-55
2021/12/16 09:03:36;;;;;;;;;8.25;7.75;;;;;21.04;37.81;103154.19;5055822;28;45718;-55
2021/12/16 09:06:02;;;;;;;;;10.25;8.00;;;;;21.03;38.06;103160.34;5055987;28;45200;-55
2021/12/16 09:08:28;;;;;;;;;10.00;8.75;;;;;21.05;37.76;103169.09;5037656;28;45582;-55
2021/12/16 09:10:54;;;;;;;;;11.00;8.25;;;;;21.04;38.07;103165.63;5055471;28;45321;-54
2021/12/16 09:13:19;;;;;;;;;11.00;7.00;;;;;21.04;37.87;103168.25;5055985;28;45944;-56
2021/12/16 09:16:01;;;;;;;;;10.00;10.00;;;;;21.03;37.66;103165.63;5055958;28;45300;-55
2021/12/16 09:18:29;;;;;;;;;8.00;8.00;;;;;21.02;37.53;103167.41;5055905;28;45490;-56
2021/12/16 09:20:57;;;;;;;;;9.75;8.50;;;;;21.02;37.73;103167.41;5055509;28;45498;-53
2021/12/16 09:23:23;;;;;;;;;8.00;8.00;;;;;21.01;37.53;103165.66;5037504;28;45514;-54
2021/12/16 09:25:50;;;;;;;;;8.25;6.75;;;;;21.01;38.04;103173.59;5055983;28;45442;-55
2021/12/16 09:28:18;;;;;;;;;9.00;7.00;;;;;21.00;37.65;103170.06;5055929;28;45336;-54
2021/12/16 09:30:43;;;;;;;;;7.25;7.25;;;;;21.00;37.80;103180.59;5055308;28;46604;-55
2021/12/16 09:33:14;;;;;;;;;8.00;8.00;;;;;21.01;37.60;103181.50;5057792;28;45363;-53
2021/12/16 09:35:43;;;;;;;;;11.25;8.75;;;;;21.00;37.52;103174.47;5041552;28;45444;-56
2021/12/16 09:38:10;;;;;;;;;8.75;8.25;;;;;21.00;37.52;103179.75;5041006;28;45498;-53
2021/12/16 09:40:39;;;;;;;;;10.00;8.25;;;;;20.99;37.95;103184.16;5058560;28;45355;-55
2021/12/16 09:43:06;;;;;;;;;11.25;8.50;;;;;20.98;37.42;103181.53;5058527;28;45344;-53
2021/12/16 09:45:32;;;;;;;;;7.25;7.25;;;;;20.99;37.42;103188.56;5058800;28;45316;-56
2021/12/16 09:47:58;;;;;;;;;8.00;6.00;;;;;20.96;37.73;103200.03;5058979;28;45326;-53
2021/12/16 09:50:28;;;;;;;;;8.25;8.25;;;;;20.97;38.03;103201.78;5058445;28;45750;-53
2021/12/16 09:52:54;;;;;;;;;7.00;7.00;;;;;20.96;37.57;103200.03;5040396;28;45467;-56
2021/12/16 09:55:20;;;;;;;;;9.00;9.00;;;;;20.97;37.74;103212.31;5058731;28;45336;-55
2021/12/16 09:57:47;;;;;;;;;8.00;8.00;;;;;20.95;37.97;103205.31;5058807;28;45567;-55
2021/12/16 10:00:16;;;;;;;;;8.50;8.50;;;;;20.97;37.69;103206.16;5058409;28;45319;-54
2021/12/16 10:02:41;;;;;;;;;9.75;8.00;;;;;20.95;37.89;103215.88;5058332;28;45303;-54
2021/12/16 10:05:09;;;;;;;;;8.25;8.25;;;;;20.96;37.82;103209.69;5058401;28;45476;-51
2021/12/16 10:07:35;;;;;;;;;10.25;8.00;;;;;20.96;37.98;103209.69;5058459;28;45374;-53
2021/12/16 10:10:17;;;;;;;;;7.00;7.00;;;;;20.94;37.85;103207.09;5058121;28;46153;-55
2021/12/16 10:12:46;;;;;;;;;10.00;8.25;;;;;20.94;37.83;103211.53;5058207;28;45786;-54
2021/12/16 10:18:08;;;;;;;;;7.00;7.00;;;;;20.94;37.44;103216.78;5058618;28;45329;-52
2021/12/16 10:20:40;;;;;;;;;7.25;4.00;;;;;20.92;37.86;103214.16;5058128;28;45247;-53
2021/12/16 10:23:19;;;;;;;;;8.00;8.00;;;;;20.92;37.98;103215.94;5058314;28;45309;-55
2021/12/16 10:25:49;;;;;;;;;9.00;7.25;;;;;20.91;37.60;103208.94;5058289;28;45299;-57
2021/12/16 10:28:23;;;;;;;;;6.50;6.50;;;;;20.91;38.07;103209.78;5058328;28;45188;-57
2021/12/16 10:31:07;;;;;;;;;9.50;8.25;;;;;20.91;37.51;103207.16;5057995;28;47532;-59
2021/12/16 10:33:42;;;;;;;;;11.00;7.75;;;;;20.89;37.99;103203.66;5057782;28;45863;-56
2021/12/16 10:36:21;;;;;;;;;8.50;8.00;;;;;20.88;37.29;103207.25;5057910;28;45343;-56
2021/12/16 10:39:06;;;;;;;;;7.25;7.25;;;;;20.89;37.51;103208.94;5058284;28;45356;-55
2021/12/16 10:41:35;;;;;;;;;10.50;9.00;;;;;20.90;37.99;103208.06;5057853;28;45535;-56
2021/12/16 10:44:14;;;;;;;;;10.00;8.00;;;;;20.89;37.91;103211.59;5057590;28;45415;-56
2021/12/16 10:46:47;;;;;;;;;12.00;9.50;;;;;20.88;38.07;103201.09;5057818;28;45315;-56
2021/12/16 10:49:19;;;;;;;;;6.25;6.25;;;;;20.88;38.02;103201.09;5057996;28;45458;-54
2021/12/16 10:51:49;;;;;;;;;11.50;8.50;;;;;20.88;38.06;103207.25;5057519;28;45399;-55
2021/12/16 10:54:17;;;;;;;;;9.25;9.00;;;;;20.87;37.85;103204.59;5057677;28;45774;-55
2021/12/16 10:56:45;;;;;;;;;8.25;8.25;;;;;20.88;38.00;103211.63;5057732;28;45290;-56
2021/12/16 10:59:22;;;;;;;;;10.50;10.00;;;;;20.87;37.93;103210.78;5057777;28;45364;-54
2021/12/16 11:02:02;;;;;;;;;6.00;6.00;;;;;20.85;38.01;103205.50;5057347;28;45367;-51
2021/12/16 11:04:30;;;;;;;;;8.75;7.25;;;;;20.86;37.74;103203.75;5057358;28;45814;-52
2021/12/16 11:07:08;;;;;;;;;8.25;8.25;;;;;20.85;37.78;103197.59;5057547;28;45416;-51
2021/12/16 11:09:39;;;;;;;;;7.00;7.00;;;;;20.85;38.03;103205.50;5057614;28;45364;-52
2021/12/16 11:12:07;;;;;;;;;12.00;8.75;;;;;20.85;37.56;103207.28;5057152;28;45413;-56
2021/12/16 11:14:33;;;;;;;;;8.75;8.50;;;;;20.84;37.99;103205.53;5057167;28;45441;-55
2021/12/16 11:17:02;;;;;;;;;9.25;8.75;;;;;20.84;37.66;103203.75;5055990;28;45332;-54
2021/12/16 11:19:37;;;;;;;;;7.75;7.75;;;;;20.84;37.82;103210.81;5039403;28;45425;-56
2021/12/16 11:22:05;;;;;;;;;9.50;9.00;;;;;20.83;37.73;103204.69;5057021;28;46510;-56
2021/12/16 11:24:30;;;;;;;;;8.50;7.25;;;;;20.79;37.82;103196.84;5057137;28;45943;-55
2021/12/16 11:26:55;;;;;;;;;8.00;8.00;;;;;20.83;37.67;103206.44;5039429;28;45363;-55
2021/12/16 11:29:28;;;;;;;;;10.75;9.75;;;;;20.82;37.51;103208.22;5039262;28;45319;-56
2021/12/16 11:31:56;;;;;;;;;11.25;8.50;;;;;20.83;37.87;103216.97;5057247;28;46495;-54
2021/12/16 11:34:22;;;;;;;;;7.25;7.00;;;;;20.80;37.76;103204.75;5057355;28;45411;-56
2021/12/16 11:36:53;;;;;;;;;13.50;9.25;;;;;20.81;37.68;103210.88;5057160;28;45430;-55
2021/12/16 11:39:27;;;;;;;;;8.00;7.25;;;;;20.82;37.69;103207.34;5057144;28;45363;-55
2021/12/16 11:41:57;;;;;;;;;10.75;9.25;;;;;20.80;37.50;103199.47;5057107;28;46918;-56
2021/12/16 11:44:28;;;;;;;;;7.25;7.25;;;;;20.79;37.48;103205.63;5057059;28;45850;-56
2021/12/16 11:46:57;;;;;;;;;7.00;7.00;;;;;20.79;37.99;103203.00;5057031;28;45347;-55
2021/12/16 11:49:32;;;;;;;;;9.75;8.00;;;;;20.80;37.98;103201.22;5057226;28;45459;-54
2021/12/16 11:52:03;;;;;;;;;7.75;7.75;;;;;20.81;38.03;103200.31;5038835;28;48158;-56
2021/12/16 11:54:36;;;;;;;;;11.50;9.50;;;;;20.80;37.52;103196.84;5038069;28;45378;-55
2021/12/16 11:57:24;;;;;;;;;9.25;9.25;;;;;20.79;37.75;103196.84;5056628;28;45242;-55
2021/12/16 11:59:55;;;;;;;;;9.00;9.00;;;;;20.80;37.96;103198.59;5057054;28;45458;-55
2021/12/16 12:02:32;;;;;;;;;10.00;10.00;;;;;20.80;37.81;103203.84;5038184;28;46170;-54
2021/12/16 12:05:32;;;;;;;;;10.00;9.00;;;;;20.78;38.00;103196.00;5056846;28;45872;-56
2021/12/16 12:07:59;;;;;;;;;8.50;8.50;;;;;20.78;37.50;103200.41;5023806;28;45360;-55
2021/12/16 12:10:58;;;;;;;;;9.50;7.50;;;;;20.77;37.44;103196.88;5057127;28;45454;-54
2021/12/16 12:13:30;;;;;;;;;9.75;9.75;;;;;20.78;37.52;103200.41;5056520;28;46416;-58
2021/12/16 12:16:04;;;;;;;;;9.50;8.00;;;;;20.77;37.92;103196.03;5056863;28;45393;-54
2021/12/16 12:18:41;;;;;;;;;12.50;8.75;;;;;20.77;37.64;103193.41;5056596;28;45316;-55
2021/12/16 12:21:25;;;;;;;;;10.00;10.00;;;;;20.76;37.50;103186.38;5056619;28;45253;-55
2021/12/16 12:24:13;;;;;;;;;8.75;8.75;;;;;20.74;37.52;103186.38;5056136;28;46155;-54
2021/12/16 12:26:52;;;;;;;;;11.50;9.00;;;;;20.76;37.90;103189.03;5056062;28;45250;-56
2021/12/16 12:29:21;;;;;;;;;10.00;9.25;;;;;20.74;38.00;103185.50;5056242;28;45367;-56
2021/12/16 12:31:51;;;;;;;;;9.00;9.00;;;;;20.76;37.70;103181.13;5056389;28;45325;-56
2021/12/16 12:34:18;;;;;;;;;10.00;10.00;;;;;20.74;37.40;103178.47;5056046;28;45506;-57
2021/12/16 12:36:47;;;;;;;;;12.25;10.00;;;;;20.73;37.56;103181.13;5056102;28;45388;-56
2021/12/16 12:39:17;;;;;;;;;4.25;4.25;;;;;20.73;38.02;103176.72;5056099;28;45234;-51
2021/12/16 12:41:45;;;;;;;;;9.00;9.00;;;;;20.73;37.46;103178.50;5056283;28;45344;-53
2021/12/16 12:44:10;;;;;;;;;8.00;8.00;;;;;20.72;37.94;103188.19;5055908;28;45380;-51
2021/12/16 12:46:39;;;;;;;;;9.00;7.75;;;;;20.73;37.49;103175.84;5055976;28;45372;-54
2021/12/16 12:49:08;;;;;;;;;9.75;8.50;;;;;20.73;37.39;103173.22;5056202;28;45904;-52
2021/12/16 12:51:41;;;;;;;;;7.75;7.75;;;;;20.72;37.32;103175.00;5056222;28;45418;-53
2021/12/16 12:54:22;;;;;;;;;9.25;9.25;;;;;20.72;37.91;103169.72;5055861;28;46180;-53
2021/12/16 12:56:50;;;;;;;;;9.75;9.00;;;;;20.72;37.66;103163.56;5055827;28;45804;-56
2021/12/16 12:59:16;;;;;;;;;11.25;9.50;;;;;20.73;37.59;103170.59;5056040;28;45273;-57
2021/12/16 13:01:53;;;;;;;;;9.00;8.00;;;;;20.72;37.75;103168.84;5055973;28;45419;-55
2021/12/16 13:05:04;;;;;;;;;10.00;8.75;;;;;20.72;37.61;103168.84;5055731;28;46348;-55
2021/12/16 13:07:33;;;;;;;;;11.50;8.25;;;;;20.71;37.49;103170.63;5034097;28;45395;-52
2021/12/16 13:10:14;;;;;;;;;11.50;9.50;;;;;20.70;37.24;103164.47;5041532;28;45462;-55
2021/12/16 13:12:56;;;;;;;;;9.50;9.50;;;;;20.69;37.64;103165.38;5059502;28;45281;-56
2021/12/16 13:27:01;;;;;;;;;8.50;8.50;;;;;20.68;37.40;103147.81;5058936;28;45519;-56
2021/12/16 13:34:49;;;;;;;;;10.50;9.50;;;;;20.67;37.34;103142.59;5059259;28;45415;-54
2021/12/16 13:37:34;;;;;;;;;10.50;9.00;;;;;20.65;37.80;103137.34;5058841;28;45556;-54
2021/12/16 13:40:09;;;;;;;;;9.00;9.00;;;;;20.66;37.43;103133.81;5059144;28;45372;-55
2021/12/16 13:42:42;;;;;;;;;9.50;8.50;;;;;20.66;37.92;103133.81;5058810;28;45236;-55
2021/12/16 13:45:17;;;;;;;;;10.00;9.50;;;;;20.65;37.43;103142.63;5058996;28;45548;-54
2021/12/16 13:47:55;;;;;;;;;10.25;9.25;;;;;20.66;37.55;103144.38;5058455;28;46545;-55
2021/12/16 14:07:54;;;;;;;;;8.00;8.00;;;;;20.63;37.57;103149.69;5058398;28;45366;-56
2021/12/16 14:10:47;;;;;;;;;8.00;8.00;;;;;20.63;37.85;103149.69;5058165;28;47283;-55
2021/12/16 14:16:26;;;;;;;;;10.75;9.25;;;;;20.62;37.51;103141.78;5058174;28;45302;-55
2021/12/16 14:47:30;;;;;;;;;8.25;8.25;;;;;20.59;37.99;103145.38;5015109;28;46036;-54
2021/12/16 14:49:56;;;;;;;;;9.00;9.00;;;;;20.58;37.99;103148.03;5043559;28;45379;-56
2021/12/16 14:52:31;;;;;;;;;7.50;7.50;;;;;20.59;37.67;103150.63;5058133;28;45445;-56
2021/12/16 14:55:02;;;;;;;;;9.00;7.75;;;;;20.58;37.73;103151.53;5057787;28;46503;-52
2021/12/16 14:57:33;;;;;;;;;7.50;7.00;;;;;20.57;37.81;103149.78;5039506;28;45371;-53
2021/12/16 15:00:07;;;;;;;;;7.25;6.00;;;;;20.58;37.33;103156.78;5057766;28;45300;-54
2021/12/16 15:02:34;;;;;;;;;8.00;7.00;;;;;20.57;37.69;103149.78;5058106;28;45388;-50